createdAt,value
2018-12-10T00:02:08.810Z,7.00
2018-12-10T00:04:36.331Z,7.20
2018-12-10T00:07:03.907Z,7.00
2018-12-10T00:09:31.629Z,7.00
2018-12-10T00:11:59.223Z,7.00
2018-12-10T00:14:33.543Z,7.00
2018-12-10T00:17:01.075Z,7.10
2018-12-10T00:19:28.562Z,7.20
2018-12-10T00:21:56.342Z,7.10
2018-12-10T00:24:23.827Z,7.10
2018-12-10T00:26:51.411Z,7.20
2018-12-10T00:29:18.939Z,7.20
2018-12-10T00:31:46.440Z,7.20
2018-12-10T00:34:13.938Z,7.10
2018-12-10T00:36:42.680Z,7.30
2018-12-10T00:39:10.206Z,7.20
2018-12-10T00:41:37.699Z,7.00
2018-12-10T00:44:05.210Z,6.80
2018-12-10T00:46:32.768Z,6.90
2018-12-10T00:49:00.255Z,7.00
2018-12-10T00:51:28.109Z,6.90
2018-12-10T00:53:55.639Z,7.00
2018-12-10T00:56:23.174Z,6.90
2018-12-10T00:58:50.670Z,6.80
2018-12-10T01:01:18.160Z,6.80
2018-12-10T01:03:45.651Z,6.60
2018-12-10T01:06:13.159Z,6.70
2018-12-10T01:08:40.673Z,6.70
2018-12-10T01:11:08.209Z,6.90
2018-12-10T01:13:35.950Z,6.70
2018-12-10T01:16:03.516Z,6.90
2018-12-10T01:18:31.009Z,6.90
2018-12-10T01:20:58.806Z,6.90
2018-12-10T01:23:26.545Z,6.70
2018-12-10T01:25:54.046Z,6.70
2018-12-10T01:28:21.567Z,6.60
2018-12-10T01:30:49.083Z,6.70
2018-12-10T01:33:16.589Z,6.70
2018-12-10T01:35:44.114Z,6.80
2018-12-10T01:38:11.903Z,6.90
2018-12-10T01:40:39.419Z,6.80
2018-12-10T01:43:06.916Z,7.00
2018-12-10T01:45:34.413Z,6.80
2018-12-10T01:48:01.909Z,6.90
2018-12-10T01:50:29.732Z,6.90
2018-12-10T01:52:57.261Z,6.90
2018-12-10T01:55:25.050Z,6.80
2018-12-10T01:57:52.546Z,6.90
2018-12-10T02:00:20.109Z,6.90
2018-12-10T02:02:48.469Z,6.70
2018-12-10T02:05:15.993Z,6.80
2018-12-10T02:07:43.466Z,6.60
2018-12-10T02:10:10.971Z,6.70
2018-12-10T02:12:38.465Z,6.60
2018-12-10T02:15:06.020Z,6.50
2018-12-10T02:17:33.767Z,6.50
2018-12-10T02:20:01.280Z,6.60
2018-12-10T02:22:29.102Z,6.60
2018-12-10T02:24:56.645Z,6.60
2018-12-10T02:27:24.143Z,6.60
2018-12-10T02:29:51.728Z,6.60
2018-12-10T02:32:19.195Z,6.60
2018-12-10T02:34:46.702Z,6.70
2018-12-10T02:37:14.203Z,6.60
2018-12-10T02:39:41.699Z,6.70
2018-12-10T02:42:09.199Z,6.70
2018-12-10T02:44:36.697Z,6.80
2018-12-10T02:47:04.195Z,6.70
2018-12-10T02:49:31.717Z,6.70
2018-12-10T02:51:59.240Z,6.70
2018-12-10T02:54:26.771Z,6.80
2018-12-10T02:56:55.313Z,6.90
2018-12-10T02:59:23.058Z,6.90
2018-12-10T03:01:50.561Z,6.90
2018-12-10T03:04:18.307Z,7.00
2018-12-10T03:06:45.829Z,7.10
2018-12-10T03:09:15.113Z,7.00
2018-12-10T03:11:42.634Z,7.00
2018-12-10T03:14:10.140Z,7.00
2018-12-10T03:16:37.663Z,7.20
2018-12-10T03:19:05.195Z,7.00
2018-12-10T03:21:32.947Z,6.90
2018-12-10T03:24:00.459Z,6.60
2018-12-10T03:26:28.268Z,6.50
2018-12-10T03:28:55.769Z,6.50
2018-12-10T03:31:23.570Z,6.60
2018-12-10T03:33:51.528Z,6.70
2018-12-10T03:36:19.104Z,6.70
2018-12-10T03:38:46.613Z,6.80
2018-12-10T03:41:14.627Z,6.80
2018-12-10T03:43:42.137Z,6.80
2018-12-10T03:46:09.826Z,6.60
2018-12-10T03:48:37.378Z,6.70
2018-12-10T03:51:04.945Z,6.30
2018-12-10T03:53:32.772Z,6.30
2018-12-10T03:56:00.376Z,6.30
2018-12-10T03:58:27.980Z,6.30
2018-12-10T04:00:55.523Z,6.50
2018-12-10T04:03:23.130Z,6.60
2018-12-10T04:05:50.639Z,6.60
2018-12-10T04:08:18.245Z,6.70
2018-12-10T04:10:46.676Z,6.60
2018-12-10T04:13:14.263Z,6.70
2018-12-10T04:15:42.899Z,6.70
2018-12-10T04:18:10.402Z,6.80
2018-12-10T04:20:38.027Z,6.80
2018-12-10T04:23:05.537Z,6.80
2018-12-10T04:25:33.095Z,6.80
2018-12-10T04:28:00.656Z,6.80
2018-12-10T04:30:28.460Z,6.70
2018-12-10T04:32:55.952Z,6.80
2018-12-10T04:35:23.448Z,6.80
2018-12-10T04:37:52.041Z,6.80
2018-12-10T04:40:19.540Z,6.80
2018-12-10T04:42:47.056Z,6.90
2018-12-10T04:45:14.557Z,6.90
2018-12-10T04:47:42.084Z,6.80
2018-12-10T04:50:09.828Z,6.80
2018-12-10T04:52:37.702Z,6.80
2018-12-10T04:55:05.327Z,6.80
2018-12-10T04:57:32.831Z,6.90
2018-12-10T05:00:00.311Z,6.80
2018-12-10T05:02:28.144Z,6.60
2018-12-10T05:04:55.690Z,6.70
2018-12-10T05:07:23.479Z,6.70
2018-12-10T05:09:51.019Z,6.80
2018-12-10T05:12:18.548Z,6.80
2018-12-10T05:14:46.026Z,6.80
2018-12-10T05:17:19.839Z,6.70
2018-12-10T05:19:47.373Z,6.70
2018-12-10T05:22:14.881Z,6.70
2018-12-10T05:24:42.354Z,6.70
2018-12-10T05:27:09.873Z,6.70
2018-12-10T05:29:37.386Z,6.60
2018-12-10T05:32:04.943Z,6.70
2018-12-10T05:34:32.437Z,6.70
2018-12-10T05:36:59.942Z,6.80
2018-12-10T05:39:38.648Z,6.80
2018-12-10T05:42:06.351Z,6.80
2018-12-10T05:44:33.864Z,6.80
2018-12-10T05:47:01.383Z,6.70
2018-12-10T05:49:28.878Z,6.70
2018-12-10T05:51:56.394Z,6.80
2018-12-10T05:54:23.893Z,6.60
2018-12-10T05:56:52.119Z,6.60
2018-12-10T05:59:19.624Z,6.70
2018-12-10T06:02:00.001Z,6.70
2018-12-10T06:04:28.275Z,6.60
2018-12-10T06:06:55.892Z,6.60
2018-12-10T06:09:23.401Z,6.70
2018-12-10T06:11:50.919Z,6.60
2018-12-10T06:14:18.410Z,6.70
2018-12-10T06:16:45.896Z,6.60
2018-12-10T06:19:13.615Z,6.60
2018-12-10T06:21:41.133Z,6.60
2018-12-10T06:29:55.382Z,6.50
2018-12-10T06:32:22.930Z,6.40
2018-12-10T06:34:50.429Z,6.60
2018-12-10T06:37:17.926Z,6.50
2018-12-10T06:39:45.433Z,6.20
2018-12-10T06:42:12.968Z,6.20
2018-12-10T06:44:40.716Z,6.10
2018-12-10T06:47:08.284Z,5.80
2018-12-10T06:49:36.414Z,6.00
2018-12-10T06:52:05.174Z,6.20
2018-12-10T06:54:32.671Z,6.10
2018-12-10T06:57:00.152Z,6.10
2018-12-10T06:59:27.713Z,6.10
2018-12-10T07:01:55.246Z,6.20
2018-12-10T07:04:22.773Z,6.20
2018-12-10T07:06:51.021Z,6.00
2018-12-10T07:09:18.569Z,5.90
2018-12-10T07:11:46.123Z,5.90
2018-12-10T07:14:28.850Z,6.10
2018-12-10T07:16:56.355Z,6.10
2018-12-10T07:19:23.860Z,5.90
2018-12-10T07:21:51.399Z,5.90
2018-12-10T07:24:18.918Z,6.00
2018-12-10T07:26:46.414Z,6.00
2018-12-10T07:29:13.937Z,6.00
2018-12-10T07:31:41.451Z,6.00
2018-12-10T07:34:08.946Z,6.10
2018-12-10T07:36:56.578Z,6.20
2018-12-10T07:39:24.095Z,6.20
2018-12-10T07:41:51.607Z,6.10
2018-12-10T07:44:19.154Z,6.20
2018-12-10T07:46:46.666Z,6.30
2018-12-10T07:49:14.212Z,6.20
2018-12-10T07:51:41.752Z,6.30
2018-12-10T07:54:09.277Z,6.50
2018-12-10T07:56:36.808Z,6.40
2018-12-10T08:02:04.141Z,6.50
2018-12-10T08:04:31.678Z,6.60
2018-12-10T08:06:59.173Z,6.60
2018-12-10T08:09:26.709Z,6.50
2018-12-10T08:11:54.229Z,6.50
2018-12-10T08:14:21.735Z,6.60
2018-12-10T08:16:49.241Z,6.70
2018-12-10T08:19:16.727Z,6.70
2018-12-10T08:21:44.269Z,6.70
2018-12-10T08:24:12.731Z,6.80
2018-12-10T08:26:40.236Z,6.80
2018-12-10T08:29:07.871Z,6.80
2018-12-10T08:31:35.450Z,6.90
2018-12-10T08:34:02.959Z,6.90
2018-12-10T08:36:30.627Z,6.90
2018-12-10T08:38:58.281Z,6.80
2018-12-10T08:41:25.828Z,6.70
2018-12-10T08:43:53.770Z,6.70
2018-12-10T08:49:14.392Z,6.60
2018-12-10T08:51:41.876Z,6.60
2018-12-10T08:54:09.416Z,6.80
2018-12-10T08:56:36.942Z,6.80
2018-12-10T08:59:04.473Z,6.90
2018-12-10T09:01:31.995Z,6.90
2018-12-10T09:03:59.534Z,7.00
2018-12-10T09:06:27.040Z,7.20
2018-12-10T09:08:54.589Z,7.20
2018-12-10T09:11:23.897Z,7.00
2018-12-10T09:13:51.421Z,7.00
2018-12-10T09:16:18.940Z,7.20
2018-12-10T09:18:46.473Z,7.00
2018-12-10T09:21:14.015Z,7.10
2018-12-10T09:23:41.552Z,7.00
2018-12-10T09:26:09.114Z,7.10
2018-12-10T09:28:36.728Z,7.20
2018-12-10T09:31:04.210Z,7.40
2018-12-10T09:36:45.516Z,7.60
2018-12-10T09:39:13.034Z,7.30
2018-12-10T09:41:40.535Z,7.20
2018-12-10T09:44:08.058Z,7.00
2018-12-10T09:46:35.588Z,7.00
2018-12-10T09:49:03.184Z,7.00
2018-12-10T09:51:30.704Z,7.00
2018-12-10T09:53:58.247Z,7.00
2018-12-10T09:56:25.819Z,7.10
2018-12-10T10:04:41.586Z,7.10
2018-12-10T10:07:09.099Z,7.10
2018-12-10T10:09:36.618Z,7.10
2018-12-10T10:12:04.134Z,7.10
2018-12-10T10:14:31.658Z,7.10
2018-12-10T10:17:00.304Z,7.10
2018-12-10T10:19:27.840Z,7.30
2018-12-10T10:21:55.334Z,7.30
2018-12-10T10:24:22.890Z,7.40
2018-12-10T10:26:50.728Z,7.60
2018-12-10T10:29:18.260Z,7.70
2018-12-10T10:31:45.956Z,7.70
2018-12-10T10:34:13.498Z,7.50
2018-12-10T10:36:41.026Z,7.60
2018-12-10T10:39:08.538Z,7.60
2018-12-10T10:41:36.044Z,7.40
2018-12-10T10:44:03.588Z,7.40
2018-12-10T10:46:31.105Z,7.30
2018-12-10T10:48:58.617Z,7.40
2018-12-10T10:51:26.112Z,7.40
2018-12-10T10:53:53.609Z,7.50
2018-12-10T10:56:21.108Z,7.40
2018-12-10T10:58:48.607Z,7.40
2018-12-10T11:01:22.662Z,7.50
2018-12-10T11:03:50.189Z,7.60
2018-12-10T11:06:17.759Z,7.70
2018-12-10T11:08:45.274Z,7.60
2018-12-10T11:11:12.794Z,7.50
2018-12-10T11:13:40.315Z,7.50
2018-12-10T11:16:07.857Z,7.50
2018-12-10T11:18:36.215Z,7.60
2018-12-10T11:21:03.807Z,7.50
2018-12-10T11:23:31.312Z,7.50
2018-12-10T11:25:58.846Z,7.50
2018-12-10T11:28:26.326Z,7.60
2018-12-10T11:30:53.877Z,7.50
2018-12-10T11:33:31.360Z,7.60
2018-12-10T11:35:58.962Z,7.60
2018-12-10T11:38:26.511Z,7.60
2018-12-10T11:40:54.041Z,7.50
2018-12-10T11:43:21.539Z,7.60
2018-12-10T11:45:49.064Z,7.70
2018-12-10T11:48:16.592Z,7.80
2018-12-10T11:50:44.097Z,7.90
2018-12-10T11:53:11.621Z,7.90
2018-12-10T11:55:39.871Z,7.90
2018-12-10T11:58:07.398Z,7.90
2018-12-10T12:00:35.901Z,8.00
2018-12-10T12:03:03.478Z,7.90
2018-12-10T12:05:31.613Z,8.00
2018-12-10T12:07:59.122Z,8.00
2018-12-10T12:10:26.651Z,8.00
2018-12-10T12:12:54.240Z,8.10
2018-12-10T12:15:21.738Z,8.00
2018-12-10T12:17:49.329Z,7.80
2018-12-10T12:20:16.857Z,7.70
2018-12-10T12:22:44.439Z,7.60
2018-12-10T12:25:11.978Z,7.80
2018-12-10T12:27:39.446Z,8.20
2018-12-10T12:30:07.835Z,8.50
2018-12-10T12:32:35.333Z,8.80
2018-12-10T12:35:02.898Z,8.70
2018-12-10T12:37:30.436Z,8.70
2018-12-10T12:39:58.816Z,8.80
2018-12-10T12:42:26.327Z,8.70
2018-12-10T12:44:54.082Z,8.60
2018-12-10T12:47:21.566Z,8.40
2018-12-10T12:49:49.082Z,8.50
2018-12-10T12:52:16.626Z,8.50
2018-12-10T12:54:44.223Z,8.30
2018-12-10T12:57:11.767Z,8.40
2018-12-10T12:59:39.263Z,8.30
2018-12-10T13:02:08.645Z,8.30
2018-12-10T13:04:36.152Z,8.30
2018-12-10T13:07:03.851Z,8.20
2018-12-10T13:09:31.496Z,8.30
2018-12-10T13:11:58.975Z,8.40
2018-12-10T13:14:26.455Z,8.30
2018-12-10T13:16:53.973Z,8.40
2018-12-10T13:19:21.488Z,8.30
2018-12-10T13:21:49.101Z,8.20
2018-12-10T13:24:16.600Z,8.10
2018-12-10T13:26:44.127Z,8.30
2018-12-10T13:29:11.772Z,8.40
2018-12-10T13:31:39.561Z,8.60
2018-12-10T13:34:07.085Z,8.90
2018-12-10T13:36:35.372Z,9.20
2018-12-10T13:39:04.755Z,9.50
2018-12-10T13:41:32.301Z,9.70
2018-12-10T13:43:59.785Z,9.70
2018-12-10T13:49:20.724Z,9.80
2018-12-10T13:51:48.237Z,9.60
2018-12-10T13:54:15.783Z,9.50
2018-12-10T13:56:43.268Z,9.50
2018-12-10T13:59:10.803Z,9.50
2018-12-10T14:01:38.306Z,9.30
2018-12-10T14:04:07.783Z,9.10
2018-12-10T14:06:35.328Z,9.20
2018-12-10T14:09:07.930Z,9.30
2018-12-10T14:11:35.469Z,9.10
2018-12-10T14:14:02.966Z,9.20
2018-12-10T14:16:30.467Z,9.10
2018-12-10T14:18:58.169Z,9.30
2018-12-10T14:21:25.672Z,9.00
2018-12-10T14:23:53.258Z,8.90
2018-12-10T14:26:20.867Z,8.90
2018-12-10T14:28:48.568Z,8.70
2018-12-10T14:31:16.066Z,8.60
2018-12-10T14:36:47.050Z,8.50
2018-12-10T14:39:14.687Z,8.40
2018-12-10T14:41:42.276Z,8.40
2018-12-10T14:44:09.806Z,8.40
2018-12-10T14:46:37.347Z,8.40
2018-12-10T14:49:04.968Z,8.40
2018-12-10T14:51:32.624Z,8.30
2018-12-10T14:54:00.136Z,8.40
2018-12-10T14:56:27.644Z,8.40
2018-12-10T14:59:04.892Z,8.30
2018-12-10T15:01:32.406Z,8.30
2018-12-10T15:03:59.931Z,8.30
2018-12-10T15:06:27.590Z,8.30
2018-12-10T15:08:55.131Z,8.20
2018-12-10T15:11:22.635Z,8.00
2018-12-10T15:13:50.146Z,8.00
2018-12-10T15:16:17.666Z,7.90
2018-12-10T15:18:45.166Z,7.90
2018-12-10T15:21:14.241Z,7.90
2018-12-10T15:23:41.775Z,8.00
2018-12-10T15:26:09.266Z,7.80
2018-12-10T15:28:36.759Z,7.90
2018-12-10T15:31:04.272Z,7.90
2018-12-10T15:33:31.770Z,7.70
2018-12-10T15:35:59.286Z,7.70
2018-12-10T15:38:26.859Z,7.60
2018-12-10T15:40:54.402Z,7.50
2018-12-10T15:46:28.919Z,7.40
2018-12-10T15:48:56.488Z,7.40
2018-12-10T15:51:24.033Z,7.40
2018-12-10T15:53:51.522Z,7.40
2018-12-10T15:56:19.075Z,7.40
2018-12-10T15:58:46.709Z,7.30
2018-12-10T16:01:15.121Z,7.30
2018-12-10T16:03:42.626Z,7.10
2018-12-10T16:06:10.221Z,7.20
2018-12-10T16:08:37.710Z,7.20
2018-12-10T16:11:05.294Z,7.20
2018-12-10T16:13:32.790Z,7.20
2018-12-10T16:16:00.314Z,7.00
2018-12-10T16:18:27.820Z,6.90
2018-12-10T16:20:55.329Z,6.90
2018-12-10T16:23:22.842Z,6.90
2018-12-10T16:25:50.365Z,6.90
2018-12-10T16:28:17.878Z,6.90
2018-12-10T16:30:45.694Z,7.00
2018-12-10T16:33:13.206Z,7.00
2018-12-10T16:35:41.519Z,6.90
2018-12-10T16:38:09.033Z,6.90
2018-12-10T16:40:36.508Z,6.90
2018-12-10T16:43:04.006Z,7.00
2018-12-10T16:45:32.478Z,7.10
2018-12-10T16:47:59.989Z,7.00
2018-12-10T16:50:28.253Z,7.10
2018-12-10T16:52:55.771Z,7.00
2018-12-10T16:55:23.324Z,7.00
2018-12-10T16:57:50.815Z,7.00
2018-12-10T17:00:18.387Z,7.10
2018-12-10T17:02:45.891Z,7.20
2018-12-10T17:05:13.499Z,7.20
2018-12-10T17:07:40.993Z,7.10
2018-12-10T17:10:08.566Z,7.10
2018-12-10T17:12:36.075Z,7.20
2018-12-10T17:15:06.578Z,7.20
2018-12-10T17:17:34.094Z,7.20
2018-12-10T17:20:01.599Z,7.10
2018-12-10T17:22:29.092Z,7.00
2018-12-10T17:24:56.588Z,6.90
2018-12-10T17:27:24.100Z,6.90
2018-12-10T17:29:51.618Z,7.10
2018-12-10T17:32:19.119Z,7.10
2018-12-10T17:34:46.630Z,7.10
2018-12-10T17:37:14.138Z,6.80
2018-12-10T17:39:41.680Z,6.70
2018-12-10T17:42:09.796Z,6.70
2018-12-10T17:44:37.298Z,6.70
2018-12-10T17:47:08.772Z,6.80
2018-12-10T17:49:34.397Z,6.60
2018-12-10T17:52:03.216Z,6.70
2018-12-10T17:54:32.648Z,6.60
2018-12-10T17:57:00.478Z,6.60
2018-12-10T17:59:27.983Z,6.60
2018-12-10T18:01:56.779Z,6.70
2018-12-10T18:04:24.291Z,6.80
2018-12-10T18:06:51.758Z,6.70
2018-12-10T18:09:19.287Z,6.60
2018-12-10T18:11:46.866Z,6.50
2018-12-10T18:14:14.367Z,6.50
2018-12-10T18:16:41.887Z,6.40
2018-12-10T18:19:09.395Z,6.40
2018-12-10T18:21:36.884Z,6.50
2018-12-10T18:24:05.192Z,6.70
2018-12-10T18:26:32.692Z,6.50
2018-12-10T18:29:00.171Z,6.40
2018-12-10T18:31:27.694Z,6.30
2018-12-10T18:33:55.198Z,6.30
2018-12-10T18:36:22.722Z,6.40
2018-12-10T18:38:50.237Z,6.40
2018-12-10T18:41:17.759Z,6.40
2018-12-10T18:43:45.721Z,6.40
2018-12-10T18:46:13.845Z,6.30
2018-12-10T18:48:41.332Z,6.40
2018-12-10T18:51:08.847Z,6.30
2018-12-10T18:53:36.353Z,6.30
2018-12-10T18:56:03.890Z,6.30
2018-12-10T18:58:31.435Z,6.30
2018-12-10T19:00:59.032Z,6.30
2018-12-10T19:03:27.538Z,6.40
2018-12-10T19:05:55.070Z,6.40
2018-12-10T19:08:22.569Z,6.40
2018-12-10T19:10:50.056Z,6.40
2018-12-10T19:13:17.561Z,6.40
2018-12-10T19:15:45.300Z,6.40
2018-12-10T19:18:12.867Z,6.30
2018-12-10T19:20:40.403Z,6.40
2018-12-10T19:23:07.922Z,6.40
2018-12-10T19:25:35.525Z,6.20
2018-12-10T19:28:03.024Z,6.10
2018-12-10T19:30:30.540Z,6.20
2018-12-10T19:32:58.295Z,6.30
2018-12-10T19:35:26.727Z,6.30
2018-12-10T19:37:56.601Z,6.30
2018-12-10T19:40:24.141Z,6.20
2018-12-10T19:42:51.654Z,6.20
2018-12-10T19:45:19.202Z,6.20
2018-12-10T19:47:47.770Z,6.10
2018-12-10T19:50:15.416Z,6.20
2018-12-10T19:52:43.664Z,6.20
2018-12-10T19:55:11.254Z,6.10
2018-12-10T19:57:38.793Z,6.20
2018-12-10T20:00:07.480Z,6.20
2018-12-10T20:02:38.072Z,6.40
2018-12-10T20:05:06.414Z,6.30
2018-12-10T20:07:34.019Z,6.30
2018-12-10T20:10:02.103Z,6.20
2018-12-10T20:12:29.600Z,6.20
2018-12-10T20:14:57.114Z,6.20
2018-12-10T20:17:24.630Z,6.20
2018-12-10T20:19:52.112Z,6.20
2018-12-10T20:22:19.649Z,6.30
2018-12-10T20:24:48.024Z,6.40
2018-12-10T20:27:15.631Z,6.20
2018-12-10T20:29:43.286Z,6.20
2018-12-10T20:32:11.701Z,6.10
2018-12-10T20:34:39.317Z,6.10
2018-12-10T20:37:07.763Z,6.10
2018-12-10T20:39:35.283Z,6.30
2018-12-10T20:42:02.783Z,6.30
2018-12-10T20:44:30.288Z,6.40
2018-12-10T20:46:57.805Z,6.30
2018-12-10T20:49:25.295Z,6.20
2018-12-10T20:51:52.785Z,6.30
2018-12-10T20:54:20.257Z,6.20
2018-12-10T20:56:48.892Z,6.20
2018-12-10T20:59:16.396Z,6.20
2018-12-10T21:01:43.882Z,6.10
2018-12-10T21:04:11.387Z,6.20
2018-12-10T21:06:38.907Z,6.10
2018-12-10T21:09:06.690Z,6.20
2018-12-10T21:11:34.372Z,6.30
2018-12-10T21:14:02.252Z,6.30
2018-12-10T21:16:29.757Z,6.30
2018-12-10T21:18:58.179Z,6.40
2018-12-10T21:21:26.380Z,6.40
2018-12-10T21:23:54.549Z,6.40
2018-12-10T21:26:22.026Z,6.40
2018-12-10T21:28:50.239Z,6.40
2018-12-10T21:31:18.694Z,6.30
2018-12-10T21:33:47.143Z,6.50
2018-12-10T21:36:14.732Z,6.40
2018-12-10T21:38:45.565Z,6.40
2018-12-10T21:41:12.314Z,6.20
2018-12-10T21:43:39.836Z,6.10
2018-12-10T21:46:07.351Z,6.20
2018-12-10T21:48:34.852Z,6.10
2018-12-10T21:51:03.223Z,6.20
2018-12-10T21:53:30.762Z,6.20
2018-12-10T21:55:58.372Z,6.10
2018-12-10T21:58:25.903Z,6.00
2018-12-10T22:00:53.433Z,6.00
2018-12-10T22:03:20.959Z,5.80
2018-12-10T22:05:48.478Z,5.80
2018-12-10T22:08:16.302Z,5.70
2018-12-10T22:10:43.926Z,5.60
2018-12-10T22:13:11.560Z,5.50
2018-12-10T22:15:39.078Z,5.40
2018-12-10T22:18:06.740Z,5.30
2018-12-10T22:20:35.197Z,5.00
2018-12-10T22:23:02.811Z,5.10
2018-12-10T22:25:30.507Z,5.30
2018-12-10T22:27:58.173Z,5.30
2018-12-10T22:30:25.808Z,5.30
2018-12-10T22:32:53.382Z,5.40
2018-12-10T22:35:20.960Z,5.10
2018-12-10T22:37:48.505Z,5.10
2018-12-10T22:40:16.055Z,5.20
2018-12-10T22:42:43.584Z,5.10
2018-12-10T22:45:11.094Z,5.10
2018-12-10T22:47:38.610Z,4.60
2018-12-10T22:50:06.291Z,4.70
2018-12-10T22:52:33.799Z,4.80
2018-12-10T22:55:01.281Z,4.60
2018-12-10T22:57:28.759Z,4.40
2018-12-10T22:59:56.242Z,4.20
2018-12-10T23:02:23.746Z,4.20
2018-12-10T23:04:51.281Z,4.10
2018-12-10T23:07:18.789Z,4.00
2018-12-10T23:09:50.149Z,3.90
2018-12-10T23:12:17.679Z,3.70
2018-12-10T23:14:45.472Z,3.90
2018-12-10T23:17:12.961Z,4.10
2018-12-10T23:19:40.451Z,4.00
2018-12-10T23:22:07.977Z,4.00
2018-12-10T23:24:35.571Z,4.00
2018-12-10T23:27:03.082Z,4.20
2018-12-10T23:29:30.664Z,4.10
2018-12-10T23:31:58.153Z,4.00
2018-12-10T23:34:25.679Z,4.00
2018-12-10T23:36:53.200Z,3.80
2018-12-10T23:39:20.822Z,3.70
2018-12-10T23:41:48.291Z,3.80
2018-12-10T23:44:21.494Z,3.70
2018-12-10T23:46:49.652Z,4.00
2018-12-10T23:49:17.185Z,3.80
2018-12-10T23:51:44.671Z,3.90
2018-12-10T23:54:12.239Z,4.10
2018-12-10T23:56:39.753Z,4.30
2018-12-10T23:59:07.348Z,4.40
